Schedule Details


Flight Number: CTN341
Departure: Sarajevo (LQSA) at 06:30
Arrival: Franjo Tudman (LDZA) at 07:20
Route: BOSNA L608 KOMAR L187 TEBLI

Weather Information
LQSA 172200Z 29003KT 270V340 9999 FEW070 17/13 Q1020
LDZA 172230Z 00000KT CAVOK 19/15 Q1017 NOSIG
Schedule Frequency

Route Map